Time;durP1;ratioP1;P1;durP2;ratioP2;P2;SDS_P1;SDS_P2;PMS_P1;PMS_P2;Temp;Humidity;BMP_temperature;BMP_pressure;BME280_temperature;BME280_humidity;BME280_pressure;Samples;Min_cycle;Max_cycle;Signal;HPM_P1;HPM_P2
2019/10/23 00:01:05;;;;;;;2.03;1.83;;;;;;;20.32;59.48;100933.28;;;;-52
2019/10/23 00:04:05;;;;;;;2.31;2.11;;;;;;;20.33;59.41;100939.61;;;;-52
2019/10/23 00:07:05;;;;;;;2.21;1.89;;;;;;;20.31;59.56;100937.77;;;;-52
2019/10/23 00:10:05;;;;;;;2.19;1.92;;;;;;;20.32;59.52;100939.05;;;;-52
2019/10/23 00:13:05;;;;;;;2.21;1.90;;;;;;;20.31;59.49;100936.43;;;;-52
2019/10/23 00:16:05;;;;;;;2.09;1.89;;;;;;;20.30;59.49;100930.88;;;;-52
2019/10/23 00:19:05;;;;;;;2.07;1.92;;;;;;;20.30;59.48;100930.11;;;;-52
2019/10/23 00:22:05;;;;;;;2.30;2.10;;;;;;;20.29;59.48;100926.70;;;;-52
2019/10/23 00:25:05;;;;;;;2.04;1.90;;;;;;;20.30;59.56;100923.96;;;;-52
2019/10/23 00:28:05;;;;;;;3.05;2.01;;;;;;;20.29;59.54;100920.83;;;;-52
2019/10/23 00:31:05;;;;;;;2.20;1.88;;;;;;;20.29;59.52;100924.75;;;;-52
2019/10/23 00:34:05;;;;;;;2.74;1.98;;;;;;;20.29;59.51;100918.21;;;;-52
2019/10/23 00:37:05;;;;;;;2.35;1.90;;;;;;;20.28;59.54;100904.41;;;;-52
2019/10/23 00:40:05;;;;;;;1.88;1.78;;;;;;;20.28;59.45;100904.97;;;;-52
2019/10/23 00:43:05;;;;;;;2.29;2.09;;;;;;;20.28;59.47;100903.00;;;;-52
2019/10/23 00:46:05;;;;;;;2.20;2.00;;;;;;;20.27;59.45;100895.58;;;;-52
2019/10/23 00:49:05;;;;;;;2.35;2.08;;;;;;;20.27;59.50;100885.80;;;;-52
2019/10/23 00:52:05;;;;;;;2.17;1.97;;;;;;;20.26;59.50;100880.38;;;;-52
2019/10/23 00:55:05;;;;;;;2.18;1.98;;;;;;;20.26;59.50;100873.95;;;;-52
2019/10/23 00:58:05;;;;;;;2.13;1.92;;;;;;;20.26;59.43;100870.30;;;;-52
2019/10/23 01:01:05;;;;;;;2.09;1.89;;;;;;;20.25;59.49;100867.07;;;;-52
2019/10/23 01:04:05;;;;;;;2.46;2.09;;;;;;;20.25;59.50;100861.27;;;;-52
2019/10/23 01:07:05;;;;;;;1.96;1.82;;;;;;;20.25;59.52;100857.64;;;;-52
2019/10/23 01:10:05;;;;;;;1.97;1.87;;;;;;;20.24;59.43;100850.37;;;;-52
2019/10/23 01:13:05;;;;;;;2.24;2.03;;;;;;;20.24;59.48;100854.13;;;;-52
2019/10/23 01:16:05;;;;;;;2.03;1.90;;;;;;;20.23;59.52;100854.39;;;;-49
2019/10/23 01:19:05;;;;;;;2.51;2.04;;;;;;;20.23;59.49;100851.77;;;;-49
2019/10/23 01:22:05;;;;;;;2.21;2.01;;;;;;;20.23;59.50;100857.48;;;;-49
2019/10/23 01:25:05;;;;;;;2.24;2.04;;;;;;;20.23;59.52;100852.44;;;;-53
2019/10/23 01:28:05;;;;;;;1.94;1.80;;;;;;;20.23;59.52;100845.90;;;;-61
2019/10/23 01:31:05;;;;;;;2.11;1.91;;;;;;;20.23;59.54;100843.38;;;;-61
2019/10/23 01:34:05;;;;;;;1.87;1.77;;;;;;;20.22;59.48;100838.25;;;;-60
2019/10/23 01:37:05;;;;;;;1.97;1.87;;;;;;;20.22;59.50;100831.70;;;;-49
2019/10/23 01:40:05;;;;;;;2.00;1.90;;;;;;;20.22;59.50;100824.89;;;;-61
2019/10/23 01:43:05;;;;;;;2.20;2.00;;;;;;;20.21;59.54;100821.27;;;;-50
2019/10/23 01:46:05;;;;;;;2.71;1.89;;;;;;;20.21;59.56;100818.75;;;;-52
2019/10/23 01:49:05;;;;;;;2.03;1.83;;;;;;;20.21;59.50;100825.17;;;;-52
2019/10/23 01:52:05;;;;;;;1.93;1.79;;;;;;;20.20;59.54;100831.45;;;;-50
2019/10/23 01:55:05;;;;;;;2.26;2.01;;;;;;;20.20;59.45;100829.56;;;;-53
2019/10/23 01:58:05;;;;;;;2.75;1.88;;;;;;;20.20;59.59;100826.08;;;;-53
2019/10/23 02:01:05;;;;;;;1.95;1.80;;;;;;;20.20;59.51;100824.53;;;;-50
2019/10/23 02:04:05;;;;;;;2.05;1.90;;;;;;;20.20;59.54;100825.47;;;;-50
2019/10/23 02:07:05;;;;;;;2.11;1.83;;;;;;;20.20;59.51;100815.73;;;;-52
2019/10/23 02:10:05;;;;;;;1.84;1.72;;;;;;;20.19;59.51;100809.77;;;;-52
2019/10/23 02:13:05;;;;;;;2.67;1.91;;;;;;;20.19;59.49;100805.20;;;;-53
2019/10/23 02:16:05;;;;;;;2.14;1.94;;;;;;;20.19;59.48;100799.49;;;;-52
2019/10/23 02:19:05;;;;;;;2.09;1.89;;;;;;;20.19;59.45;100794.91;;;;-61
2019/10/23 02:22:05;;;;;;;2.09;1.87;;;;;;;20.18;59.51;100788.05;;;;-49
2019/10/23 02:25:05;;;;;;;2.05;1.87;;;;;;;20.18;59.50;100790.89;;;;-52
2019/10/23 02:28:05;;;;;;;1.91;1.81;;;;;;;20.18;59.54;100775.00;;;;-52
2019/10/23 02:31:05;;;;;;;1.87;1.77;;;;;;;20.18;59.50;100763.39;;;;-61
2019/10/23 02:34:05;;;;;;;1.96;1.84;;;;;;;20.17;59.51;100769.26;;;;-52
2019/10/23 02:37:05;;;;;;;1.91;1.81;;;;;;;20.17;59.53;100765.63;;;;-53
2019/10/23 02:40:05;;;;;;;1.81;1.71;;;;;;;20.16;59.52;100760.99;;;;-53
2019/10/23 02:43:05;;;;;;;1.90;1.80;;;;;;;20.17;59.57;100753.39;;;;-52
2019/10/23 02:46:05;;;;;;;2.87;2.07;;;;;;;20.16;59.50;100745.23;;;;-50
2019/10/23 02:49:05;;;;;;;2.41;1.75;;;;;;;20.17;59.52;100737.12;;;;-50
2019/10/23 02:52:05;;;;;;;1.90;1.80;;;;;;;20.16;59.50;100741.50;;;;-52
2019/10/23 02:55:05;;;;;;;2.21;2.01;;;;;;;20.16;59.50;100743.72;;;;-52
2019/10/23 02:58:05;;;;;;;1.78;1.68;;;;;;;20.16;59.57;100748.30;;;;-52
2019/10/23 03:01:05;;;;;;;1.89;1.79;;;;;;;20.16;59.54;100752.41;;;;-61
2019/10/23 03:04:05;;;;;;;1.90;1.80;;;;;;;20.15;59.56;100749.88;;;;-50
2019/10/23 03:07:05;;;;;;;1.96;1.86;;;;;;;20.16;59.51;100746.30;;;;-52
2019/10/23 03:10:05;;;;;;;1.91;1.81;;;;;;;20.15;59.53;100746.42;;;;-49
2019/10/23 03:13:05;;;;;;;2.11;1.91;;;;;;;20.15;59.53;100739.98;;;;-52
2019/10/23 03:16:05;;;;;;;2.25;2.05;;;;;;;20.14;59.50;100741.78;;;;-53
2019/10/23 03:19:05;;;;;;;1.95;1.76;;;;;;;20.15;59.55;100742.22;;;;-52
2019/10/23 03:22:05;;;;;;;1.86;1.76;;;;;;;20.14;59.53;100736.08;;;;-49
2019/10/23 03:25:05;;;;;;;1.73;1.63;;;;;;;20.14;59.54;100735.73;;;;-52
2019/10/23 03:28:05;;;;;;;1.98;1.86;;;;;;;20.13;59.57;100734.19;;;;-52
2019/10/23 03:31:05;;;;;;;1.97;1.80;;;;;;;20.13;59.58;100731.91;;;;-53
2019/10/23 03:34:05;;;;;;;1.83;1.73;;;;;;;20.13;59.50;100733.69;;;;-49
2019/10/23 03:37:18;;;;;;;1.82;1.72;;;;;;;20.13;59.55;100741.90;;;;-49
2019/10/23 03:40:05;;;;;;;2.02;1.82;;;;;;;20.13;59.55;100739.89;;;;-61
2019/10/23 03:43:05;;;;;;;1.86;1.76;;;;;;;20.13;59.53;100739.55;;;;-50
2019/10/23 03:46:05;;;;;;;2.22;1.92;;;;;;;20.12;59.53;100744.38;;;;-61
2019/10/23 03:49:05;;;;;;;1.97;1.87;;;;;;;20.12;59.55;100742.19;;;;-61
2019/10/23 03:52:05;;;;;;;2.05;1.85;;;;;;;20.11;59.63;100734.94;;;;-61
2019/10/23 03:55:05;;;;;;;2.59;1.81;;;;;;;20.12;59.58;100728.61;;;;-61
2019/10/23 03:58:05;;;;;;;2.81;1.80;;;;;;;20.12;59.63;100720.96;;;;-60
2019/10/23 04:01:05;;;;;;;2.13;1.84;;;;;;;20.13;59.61;100711.21;;;;-52
2019/10/23 04:04:05;;;;;;;1.83;1.73;;;;;;;20.13;59.64;100697.13;;;;-51
2019/10/23 04:07:05;;;;;;;1.89;1.79;;;;;;;20.13;59.62;100691.93;;;;-50
2019/10/23 04:10:05;;;;;;;1.90;1.80;;;;;;;20.13;59.59;100688.41;;;;-60
2019/10/23 04:13:05;;;;;;;1.86;1.76;;;;;;;20.14;59.59;100682.09;;;;-52
2019/10/23 04:16:05;;;;;;;1.80;1.64;;;;;;;20.15;59.57;100683.20;;;;-60
2019/10/23 04:19:05;;;;;;;1.92;1.82;;;;;;;20.16;59.56;100687.50;;;;-61
2019/10/23 04:22:05;;;;;;;1.87;1.77;;;;;;;20.16;59.50;100689.85;;;;-52
2019/10/23 04:25:05;;;;;;;1.85;1.75;;;;;;;20.16;59.53;100684.52;;;;-52
2019/10/23 04:28:05;;;;;;;1.92;1.82;;;;;;;20.17;59.53;100679.84;;;;-52
2019/10/23 04:31:05;;;;;;;2.08;1.93;;;;;;;20.17;59.56;100682.05;;;;-53
2019/10/23 04:34:05;;;;;;;2.12;1.91;;;;;;;20.18;59.50;100689.61;;;;-53
2019/10/23 04:37:05;;;;;;;2.13;1.93;;;;;;;20.19;59.50;100694.45;;;;-53
2019/10/23 04:40:05;;;;;;;2.50;1.87;;;;;;;20.19;59.51;100693.44;;;;-52
2019/10/23 04:43:05;;;;;;;2.10;1.90;;;;;;;20.19;59.48;100692.09;;;;-52
2019/10/23 04:46:05;;;;;;;2.15;1.94;;;;;;;20.21;59.66;100697.23;;;;-52
2019/10/23 04:49:05;;;;;;;3.35;1.89;;;;;;;20.23;59.64;100699.66;;;;-50
2019/10/23 04:52:06;;;;;;;3.09;2.15;;;;;;;20.26;59.53;100701.81;;;;-49
2019/10/23 04:55:05;;;;;;;3.23;2.29;;;;;;;20.28;59.34;100702.80;;;;-48
2019/10/23 04:58:06;;;;;;;2.65;2.45;;;;;;;20.29;59.25;100706.48;;;;-49
2019/10/23 05:01:05;;;;;;;4.23;2.39;;;;;;;20.35;59.33;100702.72;;;;-47
2019/10/23 05:04:05;;;;;;;4.05;2.01;;;;;;;20.37;59.42;100696.50;;;;-47
2019/10/23 05:07:05;;;;;;;2.45;1.95;;;;;;;20.41;59.45;100692.48;;;;-47
2019/10/23 05:10:05;;;;;;;4.82;2.03;;;;;;;20.43;59.41;100681.11;;;;-47
2019/10/23 05:13:05;;;;;;;2.59;2.02;;;;;;;20.46;59.38;100683.55;;;;-51
2019/10/23 05:16:05;;;;;;;2.61;1.97;;;;;;;20.48;59.33;100689.61;;;;-47
2019/10/23 05:19:05;;;;;;;3.03;1.89;;;;;;;20.50;59.34;100687.69;;;;-46
2019/10/23 05:22:05;;;;;;;2.51;2.07;;;;;;;20.52;59.25;100688.00;;;;-47
2019/10/23 05:25:05;;;;;;;2.99;1.93;;;;;;;20.55;59.30;100689.55;;;;-47
2019/10/23 05:28:05;;;;;;;2.39;1.97;;;;;;;20.56;59.29;100683.05;;;;-47
2019/10/23 05:31:05;;;;;;;4.83;2.75;;;;;;;20.59;59.14;100677.91;;;;-45
2019/10/23 05:34:05;;;;;;;5.25;2.24;;;;;;;20.60;59.30;100674.77;;;;-52
2019/10/23 05:37:05;;;;;;;4.07;2.30;;;;;;;20.62;59.55;100671.33;;;;-51
2019/10/23 05:40:05;;;;;;;3.06;2.19;;;;;;;20.66;59.51;100668.88;;;;-48
2019/10/23 05:43:05;;;;;;;4.43;3.03;;;;;;;20.67;59.23;100663.22;;;;-48
2019/10/23 05:46:05;;;;;;;7.54;3.13;;;;;;;20.69;59.12;100657.09;;;;-52
2019/10/23 05:49:05;;;;;;;3.80;2.75;;;;;;;20.71;59.40;100647.20;;;;-55
2019/10/23 05:52:05;;;;;;;5.05;2.43;;;;;;;20.72;59.54;100647.16;;;;-52
2019/10/23 05:55:05;;;;;;;5.69;2.71;;;;;;;20.73;59.42;100647.80;;;;-57
2019/10/23 05:58:05;;;;;;;3.87;2.57;;;;;;;20.76;59.41;100644.63;;;;-54
2019/10/23 06:01:05;;;;;;;6.69;2.63;;;;;;;20.77;59.50;100646.19;;;;-58
2019/10/23 06:04:05;;;;;;;3.64;2.40;;;;;;;20.77;59.52;100651.39;;;;-47
2019/10/23 06:07:05;;;;;;;4.03;2.42;;;;;;;20.78;59.61;100649.76;;;;-51
2019/10/23 06:10:05;;;;;;;4.09;2.53;;;;;;;20.80;59.66;100649.30;;;;-59
2019/10/23 06:13:05;;;;;;;4.12;2.57;;;;;;;20.80;59.67;100647.36;;;;-51
2019/10/23 06:16:05;;;;;;;3.69;2.43;;;;;;;20.81;59.60;100647.53;;;;-53
2019/10/23 06:19:05;;;;;;;3.09;2.48;;;;;;;20.82;59.71;100654.95;;;;-50
2019/10/23 06:22:05;;;;;;;3.64;2.39;;;;;;;20.82;59.72;100662.55;;;;-53
2019/10/23 06:25:05;;;;;;;4.18;2.59;;;;;;;20.83;59.56;100658.50;;;;-54
2019/10/23 06:28:05;;;;;;;3.03;2.40;;;;;;;20.83;59.52;100669.14;;;;-53
2019/10/23 06:31:05;;;;;;;3.29;2.33;;;;;;;20.83;59.52;100678.47;;;;-54
2019/10/23 06:34:05;;;;;;;2.48;2.27;;;;;;;20.82;59.46;100669.16;;;;-54
2019/10/23 06:37:05;;;;;;;4.09;2.52;;;;;;;20.81;59.49;100662.61;;;;-55
2019/10/23 06:40:05;;;;;;;3.17;2.28;;;;;;;20.80;59.37;100664.41;;;;-54
2019/10/23 06:43:05;;;;;;;4.26;2.76;;;;;;;20.81;59.48;100664.14;;;;-53
2019/10/23 06:46:05;;;;;;;4.82;3.31;;;;;;;20.81;59.07;100662.23;;;;-51
2019/10/23 06:49:05;;;;;;;5.63;3.40;;;;;;;20.81;58.63;100665.77;;;;-53
2019/10/23 06:52:05;;;;;;;8.19;3.89;;;;;;;20.81;58.57;100667.14;;;;-49
2019/10/23 06:55:05;;;;;;;5.92;3.55;;;;;;;20.81;58.49;100666.97;;;;-48
2019/10/23 06:58:05;;;;;;;5.89;3.65;;;;;;;20.83;58.50;100673.80;;;;-49
2019/10/23 07:01:06;;;;;;;4.84;3.67;;;;;;;20.83;58.66;100672.05;;;;-46
2019/10/23 07:04:05;;;;;;;6.37;3.62;;;;;;;20.82;58.65;100656.27;;;;-46
2019/10/23 07:07:05;;;;;;;4.80;3.55;;;;;;;20.83;58.45;100650.91;;;;-48
2019/10/23 07:10:05;;;;;;;4.27;3.35;;;;;;;20.83;58.62;100646.30;;;;-52
2019/10/23 07:13:05;;;;;;;4.35;3.63;;;;;;;20.84;58.69;100646.02;;;;-50
2019/10/23 07:16:05;;;;;;;6.37;3.41;;;;;;;20.83;58.32;100646.58;;;;-56
2019/10/23 07:19:05;;;;;;;5.84;3.74;;;;;;;20.84;58.37;100650.71;;;;-57
2019/10/23 07:22:05;;;;;;;4.37;3.49;;;;;;;20.84;58.51;100651.48;;;;-52
2019/10/23 07:25:05;;;;;;;5.06;4.04;;;;;;;20.86;58.51;100655.30;;;;-56
2019/10/23 07:28:05;;;;;;;7.87;3.69;;;;;;;20.85;58.50;100647.84;;;;-48
2019/10/23 07:31:05;;;;;;;5.77;3.49;;;;;;;20.85;58.50;100654.05;;;;-52
2019/10/23 07:34:05;;;;;;;6.89;3.81;;;;;;;20.85;58.50;100655.96;;;;-51
2019/10/23 07:37:05;;;;;;;4.50;3.57;;;;;;;20.86;58.60;100647.61;;;;-52
2019/10/23 07:40:05;;;;;;;8.06;4.48;;;;;;;20.86;58.21;100624.72;;;;-52
2019/10/23 07:43:05;;;;;;;5.23;3.63;;;;;;;20.86;58.52;100611.12;;;;-52
2019/10/23 07:46:05;;;;;;;6.63;3.74;;;;;;;20.85;58.63;100609.19;;;;-53
2019/10/23 07:49:05;;;;;;;4.16;3.55;;;;;;;20.84;58.62;100614.52;;;;-59
2019/10/23 07:52:49;;;;;;;4.66;3.93;;;;;;;20.84;58.60;100605.19;;;;-52
2019/10/23 07:55:05;;;;;;;4.28;3.55;;;;;;;20.83;58.61;100601.83;;;;-50
2019/10/23 07:58:05;;;;;;;5.22;3.59;;;;;;;20.83;58.58;100611.89;;;;-60
2019/10/23 08:01:05;;;;;;;4.36;3.51;;;;;;;20.83;58.61;100608.38;;;;-52
2019/10/23 08:04:05;;;;;;;4.03;3.58;;;;;;;20.83;58.54;100600.31;;;;-52
2019/10/23 08:07:05;;;;;;;4.87;3.71;;;;;;;20.82;58.55;100607.92;;;;-52
2019/10/23 08:10:05;;;;;;;4.17;3.61;;;;;;;20.83;58.67;100611.86;;;;-51
2019/10/23 08:13:05;;;;;;;4.59;3.73;;;;;;;20.83;58.63;100613.58;;;;-48
2019/10/23 08:16:05;;;;;;;4.33;3.70;;;;;;;20.84;58.65;100613.72;;;;-48
2019/10/23 08:19:05;;;;;;;4.07;3.37;;;;;;;20.85;58.77;100608.18;;;;-51
2019/10/23 08:22:05;;;;;;;6.12;3.76;;;;;;;20.86;58.79;100608.62;;;;-60
2019/10/23 08:25:05;;;;;;;5.66;3.63;;;;;;;20.86;58.76;100612.42;;;;-60
2019/10/23 08:28:05;;;;;;;4.51;3.42;;;;;;;20.86;58.79;100613.99;;;;-61
2019/10/23 08:31:05;;;;;;;4.49;3.25;;;;;;;20.85;58.80;100615.44;;;;-61
2019/10/23 08:34:05;;;;;;;4.71;3.50;;;;;;;20.85;58.83;100605.59;;;;-54
2019/10/23 08:37:05;;;;;;;4.76;3.59;;;;;;;20.84;58.79;100605.33;;;;-54
2019/10/23 08:40:05;;;;;;;4.43;3.51;;;;;;;20.84;58.71;100604.48;;;;-54
2019/10/23 08:43:05;;;;;;;4.38;3.63;;;;;;;20.84;58.64;100594.04;;;;-54
2019/10/23 08:46:05;;;;;;;5.51;3.41;;;;;;;20.84;58.73;100589.51;;;;-54
2019/10/23 08:49:05;;;;;;;5.61;3.49;;;;;;;20.82;58.65;100585.27;;;;-55
2019/10/23 08:52:05;;;;;;;4.86;3.69;;;;;;;20.82;58.72;100586.51;;;;-54
2019/10/23 08:55:05;;;;;;;4.33;3.55;;;;;;;20.82;58.68;100579.08;;;;-54
2019/10/23 08:58:05;;;;;;;6.13;3.67;;;;;;;20.81;58.62;100577.84;;;;-54
2019/10/23 09:01:05;;;;;;;3.91;3.43;;;;;;;20.82;58.63;100583.32;;;;-54
2019/10/23 09:04:05;;;;;;;5.03;3.63;;;;;;;20.81;58.63;100581.22;;;;-61
2019/10/23 09:07:05;;;;;;;3.63;3.33;;;;;;;20.81;58.59;100572.43;;;;-61
2019/10/23 09:10:05;;;;;;;4.97;3.51;;;;;;;20.80;58.58;100572.83;;;;-51
2019/10/23 09:13:05;;;;;;;4.23;3.57;;;;;;;20.80;58.55;100572.27;;;;-54
2019/10/23 09:16:05;;;;;;;4.71;3.57;;;;;;;20.81;58.51;100562.19;;;;-54
2019/10/23 09:19:05;;;;;;;3.65;3.29;;;;;;;20.79;58.58;100559.77;;;;-61
2019/10/23 09:22:05;;;;;;;4.44;3.49;;;;;;;20.78;58.47;100557.20;;;;-61
2019/10/23 09:25:05;;;;;;;5.81;3.64;;;;;;;20.78;58.51;100558.45;;;;-53
2019/10/23 09:28:05;;;;;;;3.57;3.27;;;;;;;20.78;58.52;100550.55;;;;-51
2019/10/23 09:31:05;;;;;;;4.43;3.38;;;;;;;20.78;58.50;100560.45;;;;-50
2019/10/23 09:34:05;;;;;;;3.93;3.46;;;;;;;20.77;58.51;100566.80;;;;-54
2019/10/23 09:37:05;;;;;;;4.88;3.62;;;;;;;20.77;58.52;100567.63;;;;-54
2019/10/23 09:40:05;;;;;;;3.99;3.41;;;;;;;20.76;58.50;100562.23;;;;-54
2019/10/23 09:43:05;;;;;;;3.59;3.29;;;;;;;20.76;58.46;100558.94;;;;-54
2019/10/23 09:46:05;;;;;;;3.81;3.39;;;;;;;20.75;58.43;100566.88;;;;-55
2019/10/23 09:49:05;;;;;;;3.79;3.43;;;;;;;20.76;58.45;100575.72;;;;-61
2019/10/23 09:52:05;;;;;;;4.03;3.48;;;;;;;20.74;58.50;100571.55;;;;-55
2019/10/23 09:55:05;;;;;;;4.85;3.46;;;;;;;20.74;58.51;100574.66;;;;-53
2019/10/23 09:58:05;;;;;;;4.43;3.47;;;;;;;20.72;58.47;100570.72;;;;-61
2019/10/23 10:01:05;;;;;;;3.88;3.45;;;;;;;20.72;58.46;100564.34;;;;-61
2019/10/23 10:04:05;;;;;;;3.59;3.27;;;;;;;20.74;58.48;100566.34;;;;-61
2019/10/23 10:07:05;;;;;;;4.77;3.55;;;;;;;20.72;58.47;100564.24;;;;-61
2019/10/23 10:10:05;;;;;;;4.03;3.41;;;;;;;20.72;58.44;100565.41;;;;-61
2019/10/23 10:13:05;;;;;;;3.65;3.35;;;;;;;20.72;58.45;100568.61;;;;-54
2019/10/23 10:16:05;;;;;;;4.13;3.71;;;;;;;20.71;58.44;100566.37;;;;-54
2019/10/23 10:19:05;;;;;;;3.88;3.49;;;;;;;20.70;58.43;100565.50;;;;-53
2019/10/23 10:22:05;;;;;;;3.88;3.40;;;;;;;20.70;58.44;100567.17;;;;-54
2019/10/23 10:25:05;;;;;;;3.67;3.29;;;;;;;20.69;58.43;100556.73;;;;-53
2019/10/23 10:28:05;;;;;;;3.73;3.13;;;;;;;20.69;58.51;100545.16;;;;-54
2019/10/23 10:31:05;;;;;;;3.59;3.09;;;;;;;20.68;58.47;100533.97;;;;-54
2019/10/23 10:34:05;;;;;;;3.63;3.24;;;;;;;20.68;58.46;100533.47;;;;-54
2019/10/23 10:37:05;;;;;;;3.75;3.24;;;;;;;20.67;58.48;100532.42;;;;-51
2019/10/23 10:40:05;;;;;;;3.51;3.21;;;;;;;20.67;58.46;100523.76;;;;-53
2019/10/23 10:43:05;;;;;;;4.47;3.51;;;;;;;20.68;58.45;100516.75;;;;-53
2019/10/23 10:46:05;;;;;;;3.60;3.29;;;;;;;20.66;58.48;100511.41;;;;-53
2019/10/23 10:49:05;;;;;;;3.86;3.43;;;;;;;20.65;58.44;100507.17;;;;-53
2019/10/23 10:52:05;;;;;;;3.89;3.25;;;;;;;20.65;58.45;100507.56;;;;-53
2019/10/23 10:55:05;;;;;;;5.25;3.45;;;;;;;20.64;58.63;100503.77;;;;-51
2019/10/23 10:58:05;;;;;;;4.17;3.34;;;;;;;20.66;58.55;100495.02;;;;-52
2019/10/23 11:01:05;;;;;;;6.80;3.33;;;;;;;20.67;58.64;100494.72;;;;-56
2019/10/23 11:04:05;;;;;;;4.80;3.37;;;;;;;20.65;58.65;100486.77;;;;-56
2019/10/23 11:07:05;;;;;;;3.58;3.15;;;;;;;20.65;58.62;100485.69;;;;-56
2019/10/23 11:10:05;;;;;;;3.69;3.35;;;;;;;20.66;58.58;100485.63;;;;-56
2019/10/23 11:13:05;;;;;;;4.13;3.34;;;;;;;20.65;58.59;100487.70;;;;-56
2019/10/23 11:16:05;;;;;;;3.85;3.20;;;;;;;20.64;58.59;100481.95;;;;-56
2019/10/23 11:19:05;;;;;;;5.32;3.43;;;;;;;20.64;58.58;100481.45;;;;-56
2019/10/23 11:22:05;;;;;;;5.23;3.21;;;;;;;20.64;58.61;100475.14;;;;-56
2019/10/23 11:25:05;;;;;;;3.52;3.21;;;;;;;20.63;58.55;100466.04;;;;-56
2019/10/23 11:28:05;;;;;;;3.46;3.16;;;;;;;20.63;58.56;100472.42;;;;-56
2019/10/23 11:31:05;;;;;;;3.76;3.41;;;;;;;20.62;58.53;100465.42;;;;-56
2019/10/23 11:34:05;;;;;;;3.74;3.43;;;;;;;20.63;58.50;100467.05;;;;-55
2019/10/23 11:37:05;;;;;;;5.87;3.39;;;;;;;20.62;58.67;100463.48;;;;-59
2019/10/23 11:40:05;;;;;;;4.17;3.31;;;;;;;20.64;58.72;100453.33;;;;-52
2019/10/23 11:43:05;;;;;;;3.89;3.48;;;;;;;20.64;58.75;100442.19;;;;-52
2019/10/23 11:46:05;;;;;;;3.92;3.44;;;;;;;20.65;58.77;100440.05;;;;-53
2019/10/23 11:49:05;;;;;;;4.75;3.35;;;;;;;20.64;58.86;100436.65;;;;-53
2019/10/23 11:52:05;;;;;;;4.10;3.19;;;;;;;20.63;58.88;100429.46;;;;-53
2019/10/23 11:55:05;;;;;;;4.71;3.25;;;;;;;20.64;58.75;100426.08;;;;-53
2019/10/23 11:58:05;;;;;;;4.69;3.55;;;;;;;20.65;58.82;100424.94;;;;-56
2019/10/23 12:01:05;;;;;;;5.57;3.44;;;;;;;20.65;58.80;100427.19;;;;-50
2019/10/23 12:04:05;;;;;;;4.43;3.66;;;;;;;20.66;58.75;100430.25;;;;-51
2019/10/23 12:07:05;;;;;;;3.97;3.50;;;;;;;20.67;58.87;100423.41;;;;-52
2019/10/23 12:10:05;;;;;;;5.85;3.70;;;;;;;20.68;58.82;100420.59;;;;-49
2019/10/23 12:13:05;;;;;;;6.37;3.54;;;;;;;20.67;59.04;100417.97;;;;-52
2019/10/23 12:16:05;;;;;;;8.98;3.81;;;;;;;20.69;59.02;100425.77;;;;-60
2019/10/23 12:19:05;;;;;;;4.86;4.02;;;;;;;20.71;58.91;100421.82;;;;-62
2019/10/23 12:22:05;;;;;;;5.84;3.88;;;;;;;20.72;58.94;100427.86;;;;-62
2019/10/23 12:25:05;;;;;;;4.37;3.83;;;;;;;20.72;58.96;100429.91;;;;-58
2019/10/23 12:28:05;;;;;;;7.51;4.07;;;;;;;20.73;58.96;100428.61;;;;-60
2019/10/23 12:31:05;;;;;;;4.78;3.78;;;;;;;20.73;58.96;100423.14;;;;-65
2019/10/23 12:34:05;;;;;;;4.43;3.69;;;;;;;20.74;58.91;100424.02;;;;-61
2019/10/23 12:37:05;;;;;;;7.49;4.04;;;;;;;20.74;59.03;100424.86;;;;-59
2019/10/23 12:40:05;;;;;;;5.07;3.85;;;;;;;20.75;58.91;100424.39;;;;-59
2019/10/23 12:43:05;;;;;;;6.13;4.13;;;;;;;20.75;58.88;100424.49;;;;-57
2019/10/23 12:46:05;;;;;;;4.75;4.20;;;;;;;20.75;58.91;100412.81;;;;-59
2019/10/23 12:49:05;;;;;;;7.64;4.27;;;;;;;20.75;58.84;100407.54;;;;-56
2019/10/23 12:52:05;;;;;;;5.77;4.24;;;;;;;20.75;58.84;100406.84;;;;-60
2019/10/23 12:55:05;;;;;;;5.41;4.30;;;;;;;20.75;58.81;100403.75;;;;-60
2019/10/23 12:58:05;;;;;;;6.49;4.32;;;;;;;20.76;58.79;100402.11;;;;-48
2019/10/23 13:01:05;;;;;;;5.84;4.41;;;;;;;20.75;58.83;100396.36;;;;-47
2019/10/23 13:04:05;;;;;;;5.55;4.52;;;;;;;20.75;58.81;100392.27;;;;-50
2019/10/23 13:07:05;;;;;;;7.52;4.53;;;;;;;20.74;58.93;100390.85;;;;-47
2019/10/23 13:10:05;;;;;;;9.71;4.71;;;;;;;20.74;58.97;100396.39;;;;-50
2019/10/23 13:13:05;;;;;;;8.03;4.71;;;;;;;20.73;59.02;100388.16;;;;-45
2019/10/23 13:16:05;;;;;;;8.05;4.70;;;;;;;20.76;58.95;100380.22;;;;-49
2019/10/23 13:19:05;;;;;;;6.52;4.33;;;;;;;20.77;58.89;100376.23;;;;-49
2019/10/23 13:22:05;;;;;;;8.93;4.57;;;;;;;20.78;58.91;100369.63;;;;-54
2019/10/23 13:25:06;;;;;;;6.46;4.31;;;;;;;20.79;58.88;100363.95;;;;-50
2019/10/23 13:28:06;;;;;;;7.27;4.57;;;;;;;20.78;58.93;100349.22;;;;-51
2019/10/23 13:31:05;;;;;;;5.09;4.19;;;;;;;20.79;58.88;100336.16;;;;-51
2019/10/23 13:34:05;;;;;;;6.38;4.27;;;;;;;20.79;58.89;100332.63;;;;-50
2019/10/23 13:37:05;;;;;;;7.05;4.24;;;;;;;20.80;58.94;100328.84;;;;-52
2019/10/23 13:40:05;;;;;;;6.03;4.51;;;;;;;20.80;58.89;100323.34;;;;-52
2019/10/23 13:43:05;;;;;;;4.49;4.00;;;;;;;20.80;58.98;100322.17;;;;-52
2019/10/23 13:46:05;;;;;;;6.23;4.51;;;;;;;20.81;58.96;100325.89;;;;-53
2019/10/23 13:49:05;;;;;;;5.04;4.07;;;;;;;20.83;59.00;100325.27;;;;-54
2019/10/23 13:52:05;;;;;;;8.26;4.37;;;;;;;20.81;58.91;100330.05;;;;-53
2019/10/23 13:55:05;;;;;;;6.38;4.28;;;;;;;20.80;58.90;100331.23;;;;-52
2019/10/23 13:58:05;;;;;;;6.00;4.32;;;;;;;20.80;58.91;100324.48;;;;-53
2019/10/23 14:01:05;;;;;;;4.83;4.17;;;;;;;20.79;58.86;100315.62;;;;-53
2019/10/23 14:04:05;;;;;;;6.25;4.41;;;;;;;20.78;58.82;100309.37;;;;-53
2019/10/23 14:07:05;;;;;;;6.95;4.10;;;;;;;20.77;58.94;100303.89;;;;-51
2019/10/23 14:10:05;;;;;;;8.13;4.49;;;;;;;20.78;58.90;100285.44;;;;-51
2019/10/23 14:13:05;;;;;;;6.02;4.25;;;;;;;20.79;58.90;100274.59;;;;-61
2019/10/23 14:16:05;;;;;;;4.95;4.25;;;;;;;20.79;58.89;100274.56;;;;-52
2019/10/23 14:19:05;;;;;;;15.19;4.48;;;;;;;20.80;58.99;100268.69;;;;-50
2019/10/23 14:22:05;;;;;;;11.08;5.33;;;;;;;20.79;58.85;100262.08;;;;-51
2019/10/23 14:25:05;;;;;;;5.97;4.38;;;;;;;20.77;58.90;100264.28;;;;-51
2019/10/23 14:28:05;;;;;;;7.76;4.33;;;;;;;20.78;58.84;100267.75;;;;-51
2019/10/23 14:31:05;;;;;;;6.54;4.41;;;;;;;20.77;58.90;100267.11;;;;-51
2019/10/23 14:34:05;;;;;;;5.93;4.25;;;;;;;20.77;58.91;100258.98;;;;-51
2019/10/23 14:37:05;;;;;;;6.63;4.43;;;;;;;20.76;58.86;100249.55;;;;-51
2019/10/23 14:40:05;;;;;;;6.80;4.49;;;;;;;20.75;58.79;100246.73;;;;-51
2019/10/23 14:43:05;;;;;;;6.45;4.53;;;;;;;20.74;58.77;100239.30;;;;-51
2019/10/23 14:46:05;;;;;;;7.51;4.37;;;;;;;20.74;58.77;100237.33;;;;-51
2019/10/23 14:49:05;;;;;;;7.55;4.36;;;;;;;20.74;58.75;100234.14;;;;-51
2019/10/23 14:52:05;;;;;;;6.07;4.28;;;;;;;20.72;58.91;100231.18;;;;-53
2019/10/23 14:55:05;;;;;;;6.27;4.46;;;;;;;20.73;58.85;100232.39;;;;-51
2019/10/23 14:58:05;;;;;;;5.81;4.10;;;;;;;20.74;58.78;100229.17;;;;-53
2019/10/23 15:01:05;;;;;;;4.95;4.14;;;;;;;20.75;58.77;100218.53;;;;-53
2019/10/23 15:04:05;;;;;;;6.00;4.44;;;;;;;20.75;58.87;100209.23;;;;-52
2019/10/23 15:07:05;;;;;;;6.11;4.21;;;;;;;20.76;58.94;100203.23;;;;-51
2019/10/23 15:10:05;;;;;;;5.19;4.32;;;;;;;20.76;58.89;100205.68;;;;-52
2019/10/23 15:13:05;;;;;;;6.48;4.27;;;;;;;20.75;58.95;100227.19;;;;-51
2019/10/23 15:16:05;;;;;;;5.29;4.11;;;;;;;20.74;58.88;100232.77;;;;-61
2019/10/23 15:19:05;;;;;;;6.30;4.54;;;;;;;20.74;58.91;100228.84;;;;-62
2019/10/23 15:22:05;;;;;;;5.13;4.15;;;;;;;20.73;58.86;100228.97;;;;-65
2019/10/23 15:25:05;;;;;;;7.14;4.43;;;;;;;20.73;58.98;100229.41;;;;-56
2019/10/23 15:28:05;;;;;;;5.32;4.16;;;;;;;20.74;58.89;100215.24;;;;-48
2019/10/23 15:31:05;;;;;;;17.31;5.05;;;;;;;20.77;59.26;100212.50;;;;-54
2019/10/23 15:34:05;;;;;;;10.19;4.33;;;;;;;20.75;58.99;100219.91;;;;-57
2019/10/23 15:37:05;;;;;;;8.65;4.40;;;;;;;20.78;59.16;100227.80;;;;-57
2019/10/23 15:40:05;;;;;;;13.43;4.65;;;;;;;20.78;59.06;100227.13;;;;-61
2019/10/23 15:43:05;;;;;;;6.38;4.57;;;;;;;20.77;59.08;100215.41;;;;-61
2019/10/23 15:46:05;;;;;;;8.45;4.65;;;;;;;20.76;58.99;100199.20;;;;-61
2019/10/23 15:49:05;;;;;;;9.41;4.65;;;;;;;20.76;59.05;100193.66;;;;-57
2019/10/23 15:52:05;;;;;;;10.22;4.50;;;;;;;20.77;59.11;100177.35;;;;-64
2019/10/23 15:55:05;;;;;;;6.63;4.31;;;;;;;20.78;59.06;100170.41;;;;-58
2019/10/23 15:58:05;;;;;;;9.89;4.49;;;;;;;20.76;59.15;100175.44;;;;-63
2019/10/23 16:01:05;;;;;;;11.73;4.77;;;;;;;20.77;59.27;100185.74;;;;-57
2019/10/23 16:04:05;;;;;;;6.85;4.39;;;;;;;20.79;59.12;100192.02;;;;-60
2019/10/23 16:07:05;;;;;;;10.07;4.49;;;;;;;20.76;59.43;100186.78;;;;-60
2019/10/23 16:10:05;;;;;;;7.67;4.46;;;;;;;20.77;59.33;100188.90;;;;-58
2019/10/23 16:13:05;;;;;;;7.35;4.73;;;;;;;20.79;59.22;100193.43;;;;-61
2019/10/23 16:16:05;;;;;;;8.45;4.45;;;;;;;20.80;59.09;100182.69;;;;-54
2019/10/23 16:19:05;;;;;;;8.06;4.67;;;;;;;20.80;59.23;100180.48;;;;-56
2019/10/23 16:22:05;;;;;;;13.95;5.00;;;;;;;20.83;59.13;100184.51;;;;-57
2019/10/23 16:25:05;;;;;;;12.23;4.92;;;;;;;20.82;59.04;100188.20;;;;-55
2019/10/23 16:28:05;;;;;;;7.54;5.02;;;;;;;20.83;59.17;100189.58;;;;-58
2019/10/23 16:31:05;;;;;;;9.40;4.76;;;;;;;20.84;59.07;100185.14;;;;-59
2019/10/23 16:34:05;;;;;;;5.39;4.51;;;;;;;20.85;59.08;100180.88;;;;-57
2019/10/23 16:37:05;;;;;;;9.13;4.55;;;;;;;20.83;59.13;100171.89;;;;-60
2019/10/23 16:40:05;;;;;;;11.69;4.95;;;;;;;20.84;59.26;100173.33;;;;-61